Time;durP1;ratioP1;P1;durP2;ratioP2;P2;SDS_P1;SDS_P2;PMS_P1;PMS_P2;Temp;Humidity;BMP_temperature;BMP_pressure;BME280_temperature;BME280_humidity;BME280_pressure;Samples;Min_cycle;Max_cycle;Signal;HPM_P1;HPM_P2
2020/12/02 00:01:48;;;;;;;14.95;8.30;;;;;;;;;;5072200;28;20195;-81
2020/12/02 00:04:17;;;;;;;14.77;8.88;;;;;;;;;;5071741;28;20020;-81
2020/12/02 00:06:42;;;;;;;12.85;6.47;;;;;;;;;;5071887;28;20017;-81
2020/12/02 00:09:12;;;;;;;15.38;8.10;;;;;;;;;;5072962;28;20031;-81
2020/12/02 00:11:38;;;;;;;15.80;7.82;;;;;;;;;;5071875;28;20024;-81
2020/12/02 00:14:05;;;;;;;16.40;8.40;;;;;;;;;;5071877;28;20024;-81
2020/12/02 00:16:31;;;;;;;13.20;6.15;;;;;;;;;;5071356;28;20063;-81
2020/12/02 00:18:57;;;;;;;15.90;8.45;;;;;;;;;;5071335;28;20016;-81
2020/12/02 00:21:23;;;;;;;12.82;7.28;;;;;;;;;;5074563;28;20035;-81
2020/12/02 00:23:51;;;;;;;15.30;8.00;;;;;;;;;;5074062;28;20059;-81
2020/12/02 00:26:16;;;;;;;12.73;7.53;;;;;;;;;;5074064;28;20028;-81
2020/12/02 00:28:42;;;;;;;15.18;7.15;;;;;;;;;;5072774;28;20124;-81
2020/12/02 00:31:07;;;;;;;12.27;7.10;;;;;;;;;;5069038;28;20021;-81
2020/12/02 00:33:32;;;;;;;11.85;8.00;;;;;;;;;;5070035;28;20012;-81
2020/12/02 00:35:57;;;;;;;14.55;8.15;;;;;;;;;;5075016;28;20044;-81
2020/12/02 00:38:23;;;;;;;13.35;7.82;;;;;;;;;;5072927;28;20484;-81
2020/12/02 00:40:49;;;;;;;13.43;7.57;;;;;;;;;;5073685;28;20464;-81
2020/12/02 00:43:16;;;;;;;10.75;6.95;;;;;;;;;;5075182;28;20024;-81
2020/12/02 00:45:42;;;;;;;9.82;6.32;;;;;;;;;;5082526;28;20028;-81
2020/12/02 00:48:11;;;;;;;13.70;8.13;;;;;;;;;;5074259;28;20078;-81
2020/12/02 00:50:36;;;;;;;12.13;7.50;;;;;;;;;;5073575;28;20020;-81
2020/12/02 00:53:04;;;;;;;14.52;8.05;;;;;;;;;;5056188;28;20087;-81
2020/12/02 00:55:30;;;;;;;11.80;7.63;;;;;;;;;;5069610;28;20035;-80
2020/12/02 00:57:55;;;;;;;10.85;6.60;;;;;;;;;;5073513;28;20384;-81
2020/12/02 01:00:21;;;;;;;11.95;7.88;;;;;;;;;;5073356;28;20020;-81
2020/12/02 01:02:52;;;;;;;14.70;8.50;;;;;;;;;;5074527;28;20448;-81
2020/12/02 01:05:18;;;;;;;14.40;8.73;;;;;;;;;;5073251;28;20134;-81
2020/12/02 01:07:44;;;;;;;14.25;9.32;;;;;;;;;;5073305;28;20111;-81
2020/12/02 01:10:09;;;;;;;14.20;7.95;;;;;;;;;;5073475;28;20021;-80
2020/12/02 01:12:35;;;;;;;18.27;9.85;;;;;;;;;;5073513;28;20020;-81
2020/12/02 01:15:00;;;;;;;13.63;9.43;;;;;;;;;;5073377;28;20021;-80
2020/12/02 01:17:26;;;;;;;17.10;9.65;;;;;;;;;;5074304;28;20027;-81
2020/12/02 01:19:51;;;;;;;15.77;9.10;;;;;;;;;;5072834;28;20032;-81
2020/12/02 01:22:34;;;;;;;17.08;9.40;;;;;;;;;;5074608;28;20013;-81
2020/12/02 01:25:20;;;;;;;14.95;9.40;;;;;;;;;;5073247;28;20008;-80
2020/12/02 01:27:51;;;;;;;18.52;10.52;;;;;;;;;;5072995;28;20016;-80
2020/12/02 01:30:17;;;;;;;13.55;8.05;;;;;;;;;;5071682;28;20471;-81
2020/12/02 01:32:43;;;;;;;17.40;10.87;;;;;;;;;;5060745;28;20035;-81
2020/12/02 01:35:10;;;;;;;15.57;9.68;;;;;;;;;;5074081;28;20017;-81
2020/12/02 01:37:36;;;;;;;18.15;11.15;;;;;;;;;;5072487;28;20345;-81
2020/12/02 01:40:16;;;;;;;18.48;10.73;;;;;;;;;;5079984;28;20352;-81
2020/12/02 01:42:50;;;;;;;19.33;10.90;;;;;;;;;;5073291;28;20406;-81
2020/12/02 01:45:21;;;;;;;18.65;10.68;;;;;;;;;;5072697;28;20020;-80
2020/12/02 01:48:02;;;;;;;15.32;9.52;;;;;;;;;;5072432;28;20499;-81
2020/12/02 01:50:33;;;;;;;19.88;11.45;;;;;;;;;;5068889;28;20385;-80
2020/12/02 01:53:05;;;;;;;16.60;9.33;;;;;;;;;;5069749;28;20016;-80
2020/12/02 01:55:37;;;;;;;20.83;11.60;;;;;;;;;;5073480;28;20586;-80
2020/12/02 01:58:06;;;;;;;19.55;11.38;;;;;;;;;;5073489;28;20024;-81
2020/12/02 02:00:34;;;;;;;18.63;11.00;;;;;;;;;;5071059;28;20701;-81
2020/12/02 02:02:59;;;;;;;20.92;11.48;;;;;;;;;;5073492;28;20020;-81
2020/12/02 02:05:30;;;;;;;21.73;11.55;;;;;;;;;;5073248;28;20739;-80
2020/12/02 02:07:56;;;;;;;19.00;9.82;;;;;;;;;;5071863;28;20032;-81
2020/12/02 02:10:32;;;;;;;15.25;9.30;;;;;;;;;;5070801;28;20024;-81
2020/12/02 02:13:18;;;;;;;19.75;11.25;;;;;;;;;;5060446;28;20091;-81
2020/12/02 02:15:43;;;;;;;23.92;10.20;;;;;;;;;;5073029;28;20372;-81
2020/12/02 02:18:10;;;;;;;21.85;11.15;;;;;;;;;;5065499;28;20020;-81
2020/12/02 02:20:37;;;;;;;20.77;12.23;;;;;;;;;;5071838;28;20494;-81
2020/12/02 02:23:03;;;;;;;17.45;10.93;;;;;;;;;;5071744;28;20019;-81
2020/12/02 02:25:28;;;;;;;20.17;11.00;;;;;;;;;;5071846;28;20017;-80
2020/12/02 02:27:54;;;;;;;20.65;11.35;;;;;;;;;;5072777;28;20023;-80
2020/12/02 02:30:20;;;;;;;24.73;11.40;;;;;;;;;;5071688;28;20020;-80
2020/12/02 02:32:45;;;;;;;19.52;10.15;;;;;;;;;;5072820;28;20043;-81
2020/12/02 02:35:11;;;;;;;19.13;11.30;;;;;;;;;;5072347;28;20020;-81
2020/12/02 02:37:36;;;;;;;22.07;12.13;;;;;;;;;;5071818;28;20107;-80
2020/12/02 02:40:03;;;;;;;21.60;12.63;;;;;;;;;;5071472;28;20028;-80
2020/12/02 02:42:33;;;;;;;19.77;11.60;;;;;;;;;;5071480;28;20051;-80
2020/12/02 02:45:00;;;;;;;20.50;11.70;;;;;;;;;;5072554;28;20020;-80
2020/12/02 02:47:25;;;;;;;22.23;12.33;;;;;;;;;;5072726;28;20066;-80
2020/12/02 02:49:50;;;;;;;21.40;11.70;;;;;;;;;;5073069;28;20468;-80
2020/12/02 02:52:16;;;;;;;21.23;12.50;;;;;;;;;;5072494;28;20070;-80
2020/12/02 02:54:41;;;;;;;22.90;12.20;;;;;;;;;;5072258;28;20017;-80
2020/12/02 02:57:06;;;;;;;26.17;12.40;;;;;;;;;;5072415;28;20008;-81
2020/12/02 02:59:31;;;;;;;22.93;12.77;;;;;;;;;;5070903;28;20036;-80
2020/12/02 03:01:56;;;;;;;24.73;13.33;;;;;;;;;;5071253;28;20063;-80
2020/12/02 03:04:22;;;;;;;23.73;11.63;;;;;;;;;;5070917;28;20020;-80
2020/12/02 03:06:47;;;;;;;21.47;12.37;;;;;;;;;;5072367;28;20101;-80
2020/12/02 03:09:12;;;;;;;19.00;11.30;;;;;;;;;;5072212;28;20024;-80
2020/12/02 03:11:38;;;;;;;20.63;11.37;;;;;;;;;;5070897;28;20751;-81
2020/12/02 03:14:04;;;;;;;16.63;10.43;;;;;;;;;;5071153;28;20467;-81
2020/12/02 03:16:36;;;;;;;19.23;10.98;;;;;;;;;;5072403;28;20150;-81
2020/12/02 03:19:08;;;;;;;20.58;12.20;;;;;;;;;;5072424;28;20024;-80
2020/12/02 03:21:33;;;;;;;;;;;;;;;;;;5072540;28;20036;-81
2020/12/02 03:23:59;;;;;;;20.52;10.80;;;;;;;;;;5071212;28;19904;-80
2020/12/02 03:26:24;;;;;;;19.38;10.75;;;;;;;;;;5070948;28;20295;-80
2020/12/02 03:28:49;;;;;;;19.42;10.95;;;;;;;;;;5070852;28;20525;-80
2020/12/02 03:31:16;;;;;;;18.27;10.65;;;;;;;;;;5070750;28;20023;-80
2020/12/02 03:33:42;;;;;;;22.35;11.70;;;;;;;;;;5072142;28;20557;-80
2020/12/02 03:36:10;;;;;;;16.50;10.20;;;;;;;;;;5070424;28;20021;-80
2020/12/02 03:38:35;;;;;;;17.13;10.10;;;;;;;;;;5070954;28;20055;-80
2020/12/02 03:41:00;;;;;;;21.20;10.73;;;;;;;;;;5070711;28;20048;-80
2020/12/02 03:43:26;;;;;;;19.92;10.95;;;;;;;;;;5070697;28;20447;-81
2020/12/02 03:45:51;;;;;;;19.10;11.20;;;;;;;;;;5070697;28;20021;-81
2020/12/02 03:48:17;;;;;;;20.30;10.95;;;;;;;;;;5070874;28;20040;-80
2020/12/02 03:50:43;;;;;;;21.93;11.93;;;;;;;;;;5070778;28;20497;-81
2020/12/02 03:53:08;;;;;;;19.70;11.43;;;;;;;;;;5070457;28;20425;-81
2020/12/02 03:55:34;;;;;;;19.07;11.07;;;;;;;;;;5070902;28;20028;-80
2020/12/02 03:58:00;;;;;;;20.57;11.17;;;;;;;;;;5071593;28;20032;-80
2020/12/02 04:00:25;;;;;;;19.43;10.70;;;;;;;;;;5071369;28;20043;-80
2020/12/02 04:02:50;;;;;;;22.60;11.77;;;;;;;;;;5070485;28;20031;-80
2020/12/02 04:05:16;;;;;;;21.23;11.30;;;;;;;;;;5071589;28;20067;-80
2020/12/02 04:07:41;;;;;;;21.20;10.90;;;;;;;;;;5070894;28;20017;-81
2020/12/02 04:10:07;;;;;;;18.47;9.87;;;;;;;;;;5071012;28;20021;-81
2020/12/02 04:12:32;;;;;;;22.60;11.77;;;;;;;;;;5070764;28;20025;-81
2020/12/02 04:14:57;;;;;;;19.00;10.70;;;;;;;;;;5071851;28;20488;-80
2020/12/02 04:17:22;;;;;;;22.00;11.67;;;;;;;;;;5070595;28;20432;-80
2020/12/02 04:19:47;;;;;;;20.27;10.77;;;;;;;;;;5070566;28;20020;-81
2020/12/02 04:22:13;;;;;;;20.17;10.63;;;;;;;;;;5072072;28;20082;-81
2020/12/02 04:24:38;;;;;;;19.67;11.17;;;;;;;;;;5072848;28;20019;-81
2020/12/02 04:27:03;;;;;;;20.77;10.83;;;;;;;;;;5074141;28;20021;-80
2020/12/02 04:29:28;;;;;;;18.43;10.80;;;;;;;;;;5075307;28;20021;-81
2020/12/02 04:31:53;;;;;;;21.53;11.43;;;;;;;;;;5075054;28;20085;-80
2020/12/02 04:34:19;;;;;;;22.47;11.87;;;;;;;;;;5073816;28;20031;-80
2020/12/02 04:36:50;;;;;;;24.17;11.60;;;;;;;;;;5075511;28;20043;-82
2020/12/02 04:39:16;;;;;;;24.07;12.20;;;;;;;;;;5073645;28;20032;-81
2020/12/02 04:41:41;;;;;;;23.20;12.07;;;;;;;;;;5073776;28;20020;-80
2020/12/02 04:44:07;;;;;;;26.70;12.40;;;;;;;;;;5073844;28;20487;-80
2020/12/02 04:46:33;;;;;;;24.07;12.67;;;;;;;;;;5075111;28;20023;-80
2020/12/02 04:49:11;;;;;;;28.57;13.47;;;;;;;;;;5074940;28;20016;-81
2020/12/02 04:51:36;;;;;;;30.27;13.40;;;;;;;;;;5074593;28;20413;-80
2020/12/02 04:54:02;;;;;;;36.90;14.13;;;;;;;;;;5076031;28;20028;-80
2020/12/02 04:56:28;;;;;;;32.00;13.57;;;;;;;;;;5073216;28;20017;-81
2020/12/02 04:58:54;;;;;;;34.00;14.87;;;;;;;;;;5073421;28;20547;-81
2020/12/02 05:01:29;;;;;;;33.70;15.17;;;;;;;;;;5073441;28;20020;-81
2020/12/02 05:03:57;;;;;;;33.43;14.23;;;;;;;;;;5073634;28;20027;-80
2020/12/02 05:06:23;;;;;;;32.00;13.63;;;;;;;;;;5074611;28;20020;-81
2020/12/02 05:08:48;;;;;;;26.48;12.40;;;;;;;;;;5073376;28;20013;-81
2020/12/02 05:11:13;;;;;;;30.83;13.18;;;;;;;;;;5074808;28;20028;-81
2020/12/02 05:13:39;;;;;;;35.60;13.50;;;;;;;;;;5074465;28;20376;-81
2020/12/02 05:16:10;;;;;;;29.65;13.05;;;;;;;;;;5073310;28;20020;-81
2020/12/02 05:18:35;;;;;;;31.33;13.57;;;;;;;;;;5074370;28;20036;-80
2020/12/02 05:21:02;;;;;;;30.90;13.40;;;;;;;;;;5072934;28;20375;-80
2020/12/02 05:23:27;;;;;;;33.95;14.55;;;;;;;;;;5074202;28;20096;-81
2020/12/02 05:25:53;;;;;;;36.80;15.60;;;;;;;;;;5074155;28;20787;-80
2020/12/02 05:28:29;;;;;;;34.45;15.50;;;;;;;;;;5074176;28;20130;-80
2020/12/02 05:31:05;;;;;;;37.55;15.20;;;;;;;;;;5074070;28;20028;-81
2020/12/02 05:33:32;;;;;;;34.03;14.53;;;;;;;;;;5074214;28;20413;-81
2020/12/02 05:36:17;;;;;;;37.77;15.90;;;;;;;;;;5073426;28;20387;-80
2020/12/02 05:38:48;;;;;;;37.90;16.03;;;;;;;;;;5074300;28;20137;-80
2020/12/02 05:41:15;;;;;;;36.50;16.07;;;;;;;;;;5072715;28;20029;-80
2020/12/02 05:43:45;;;;;;;40.43;15.27;;;;;;;;;;5072738;28;20031;-81
2020/12/02 05:46:23;;;;;;;30.60;12.87;;;;;;;;;;5072476;28;20020;-80
2020/12/02 05:48:57;;;;;;;28.95;13.80;;;;;;;;;;5072205;28;20029;-80
2020/12/02 05:51:22;;;;;;;26.60;12.40;;;;;;;;;;5073760;28;20024;-81
2020/12/02 05:53:50;;;;;;;31.25;14.00;;;;;;;;;;5072406;28;20020;-80
2020/12/02 05:56:16;;;;;;;37.63;14.45;;;;;;;;;;5073297;28;20029;-81
2020/12/02 05:58:42;;;;;;;33.67;14.65;;;;;;;;;;5071880;28;20170;-81
2020/12/02 06:01:14;;;;;;;38.22;15.27;;;;;;;;;;5073386;28;20024;-81
2020/12/02 06:03:40;;;;;;;35.25;14.70;;;;;;;;;;5075036;28;20078;-81
2020/12/02 06:06:06;;;;;;;37.60;14.88;;;;;;;;;;5072112;28;20471;-81
2020/12/02 06:08:36;;;;;;;37.28;15.23;;;;;;;;;;5071896;28;20380;-81
2020/12/02 06:11:13;;;;;;;36.58;15.57;;;;;;;;;;5072094;28;20043;-80
2020/12/02 06:13:40;;;;;;;35.67;15.90;;;;;;;;;;5073038;28;20834;-80
2020/12/02 06:16:06;;;;;;;35.80;14.90;;;;;;;;;;5073350;28;20418;-80
2020/12/02 06:18:32;;;;;;;35.07;14.90;;;;;;;;;;5072064;28;20028;-81
2020/12/02 06:20:58;;;;;;;33.77;14.67;;;;;;;;;;5072955;28;20013;-80
2020/12/02 06:23:33;;;;;;;32.17;13.93;;;;;;;;;;5071938;28;20086;-80
2020/12/02 06:25:58;;;;;;;35.77;14.63;;;;;;;;;;5071806;28;20016;-80
2020/12/02 06:28:30;;;;;;;32.37;14.30;;;;;;;;;;5071531;28;20024;-81
2020/12/02 06:31:00;;;;;;;37.27;15.30;;;;;;;;;;5072056;28;20090;-80
2020/12/02 06:33:33;;;;;;;39.57;14.27;;;;;;;;;;5071840;28;20035;-81
2020/12/02 06:36:07;;;;;;;31.77;14.07;;;;;;;;;;5071596;28;20040;-80
2020/12/02 06:38:32;;;;;;;30.40;13.87;;;;;;;;;;5071408;28;20024;-81
2020/12/02 06:40:58;;;;;;;33.83;13.77;;;;;;;;;;5072714;28;20016;-80
2020/12/02 06:43:24;;;;;;;30.67;13.17;;;;;;;;;;5072917;28;20024;-80
2020/12/02 06:45:49;;;;;;;30.93;14.20;;;;;;;;;;5072749;28;20012;-80
2020/12/02 06:48:27;;;;;;;33.77;14.30;;;;;;;;;;5062190;28;20021;-80
2020/12/02 06:50:56;;;;;;;34.57;14.03;;;;;;;;;;5070756;28;20040;-81
2020/12/02 06:53:22;;;;;;;32.43;13.83;;;;;;;;;;5066108;28;20020;-81
2020/12/02 06:55:48;;;;;;;30.23;13.47;;;;;;;;;;5072642;28;20730;-81
2020/12/02 06:58:18;;;;;;;30.57;13.37;;;;;;;;;;5072953;28;20064;-81
2020/12/02 07:00:47;;;;;;;34.10;14.63;;;;;;;;;;5070647;28;20028;-81
2020/12/02 07:03:19;;;;;;;31.03;14.20;;;;;;;;;;5074249;28;20025;-81
2020/12/02 07:05:44;;;;;;;34.30;14.47;;;;;;;;;;5072248;28;20015;-80
2020/12/02 07:08:11;;;;;;;38.47;14.23;;;;;;;;;;5071412;28;20012;-81
2020/12/02 07:10:37;;;;;;;31.87;13.77;;;;;;;;;;5082761;28;20020;-81
2020/12/02 07:13:02;;;;;;;41.97;16.60;;;;;;;;;;5071103;28;20027;-80
2020/12/02 07:15:28;;;;;;;42.00;16.33;;;;;;;;;;5071252;28;20476;-81
2020/12/02 07:17:53;;;;;;;39.33;15.73;;;;;;;;;;5070374;28;20019;-81
2020/12/02 07:20:19;;;;;;;36.40;15.73;;;;;;;;;;5072067;28;20399;-81
2020/12/02 07:22:53;;;;;;;43.83;18.53;;;;;;;;;;5070922;28;20085;-81
2020/12/02 07:25:20;;;;;;;39.43;17.07;;;;;;;;;;5072379;28;20020;-81
2020/12/02 07:27:45;;;;;;;37.67;17.10;;;;;;;;;;5071571;28;20024;-81
2020/12/02 07:30:29;;;;;;;40.83;18.03;;;;;;;;;;5072347;28;20372;-81
2020/12/02 07:32:54;;;;;;;40.73;17.27;;;;;;;;;;5070739;28;20035;-81
2020/12/02 07:35:19;;;;;;;44.33;20.23;;;;;;;;;;5071038;28;20025;-81
2020/12/02 07:37:45;;;;;;;44.33;17.07;;;;;;;;;;5071827;28;20481;-81
2020/12/02 07:40:25;;;;;;;40.27;15.73;;;;;;;;;;5070694;28;20047;-81
2020/12/02 07:42:51;;;;;;;32.97;14.20;;;;;;;;;;5081603;28;20477;-81
2020/12/02 07:45:16;;;;;;;38.37;15.00;;;;;;;;;;5071416;28;20048;-81
2020/12/02 07:47:43;;;;;;;36.40;15.07;;;;;;;;;;5070506;28;20048;-81
2020/12/02 07:50:11;;;;;;;36.27;14.30;;;;;;;;;;5070883;28;20021;-81
2020/12/02 07:52:41;;;;;;;33.53;14.00;;;;;;;;;;5073945;28;20062;-81
2020/12/02 07:55:07;;;;;;;31.43;13.37;;;;;;;;;;5061237;28;20078;-81
2020/12/02 07:57:34;;;;;;;35.17;13.40;;;;;;;;;;5064593;28;20074;-81
2020/12/02 08:00:08;;;;;;;29.43;12.83;;;;;;;;;;5073450;28;20494;-81
2020/12/02 08:02:38;;;;;;;28.97;12.17;;;;;;;;;;5076246;28;20008;-81
2020/12/02 08:05:03;;;;;;;27.87;11.73;;;;;;;;;;5079283;28;20020;-81
2020/12/02 08:07:45;;;;;;;25.13;11.53;;;;;;;;;;5074641;28;20537;-81
2020/12/02 08:10:21;;;;;;;30.10;11.07;;;;;;;;;;5075127;28;20043;-81
2020/12/02 08:12:46;;;;;;;24.60;10.67;;;;;;;;;;5072040;28;20636;-81
2020/12/02 08:15:12;;;;;;;29.33;11.97;;;;;;;;;;5074202;28;20109;-81
2020/12/02 08:17:40;;;;;;;24.60;11.53;;;;;;;;;;5075119;28;20033;-81
2020/12/02 08:20:24;;;;;;;28.20;12.00;;;;;;;;;;5079442;28;20399;-81
2020/12/02 08:22:51;;;;;;;26.23;12.40;;;;;;;;;;5062029;28;20487;-81
2020/12/02 08:25:21;;;;;;;29.53;11.67;;;;;;;;;;5073339;28;20016;-81
2020/12/02 08:27:50;;;;;;;26.60;12.47;;;;;;;;;;5073559;28;20479;-81
2020/12/02 08:30:18;;;;;;;30.40;12.67;;;;;;;;;;5076308;28;20031;-81
2020/12/02 08:32:51;;;;;;;27.43;12.03;;;;;;;;;;5075317;28;20024;-81
2020/12/02 08:35:24;;;;;;;26.63;11.03;;;;;;;;;;5073621;28;20023;-80
2020/12/02 08:37:54;;;;;;;24.67;11.30;;;;;;;;;;5073568;28;20023;-81
2020/12/02 08:40:21;;;;;;;25.60;10.77;;;;;;;;;;5074995;28;20021;-81
2020/12/02 08:42:46;;;;;;;24.93;10.57;;;;;;;;;;5078120;28;20487;-82
2020/12/02 08:45:38;;;;;;;26.23;10.87;;;;;;;;;;5075000;28;20024;-81
2020/12/02 08:48:03;;;;;;;22.77;10.23;;;;;;;;;;5069247;28;20837;-81
2020/12/02 08:50:29;;;;;;;27.23;11.70;;;;;;;;;;5074756;28;20099;-81
2020/12/02 08:52:56;;;;;;;33.43;12.27;;;;;;;;;;5072706;28;20020;-81
2020/12/02 08:55:22;;;;;;;28.97;11.87;;;;;;;;;;5080876;28;20024;-80
2020/12/02 08:57:47;;;;;;;28.80;13.27;;;;;;;;;;5073258;28;20020;-80
2020/12/02 09:00:16;;;;;;;31.87;13.20;;;;;;;;;;5073111;28;20033;-81
2020/12/02 09:02:42;;;;;;;33.33;13.87;;;;;;;;;;5072540;28;20380;-80
2020/12/02 09:05:07;;;;;;;30.97;12.40;;;;;;;;;;5066655;28;20020;-81
2020/12/02 09:07:32;;;;;;;26.30;12.37;;;;;;;;;;5067669;28;20027;-80
2020/12/02 09:09:57;;;;;;;31.20;12.53;;;;;;;;;;5073665;28;20016;-80
2020/12/02 09:12:23;;;;;;;30.17;12.00;;;;;;;;;;5070742;28;20028;-80
2020/12/02 09:14:49;;;;;;;29.80;11.60;;;;;;;;;;5057193;28;20064;-79
2020/12/02 09:17:14;;;;;;;29.87;11.67;;;;;;;;;;5068272;28;20064;-80
2020/12/02 09:19:39;;;;;;;33.93;13.40;;;;;;;;;;5070799;28;20759;-79
2020/12/02 09:22:04;;;;;;;29.60;12.17;;;;;;;;;;5067252;28;20514;-80
2020/12/02 09:24:29;;;;;;;31.37;13.20;;;;;;;;;;5066445;28;20055;-79
2020/12/02 09:26:54;;;;;;;32.23;12.13;;;;;;;;;;5066011;28;20013;-79
2020/12/02 09:29:20;;;;;;;26.77;12.17;;;;;;;;;;5063792;28;20028;-79
2020/12/02 09:31:45;;;;;;;33.33;12.43;;;;;;;;;;5075711;28;20036;-79
2020/12/02 09:34:10;;;;;;;32.63;12.63;;;;;;;;;;5064313;28;20017;-79
2020/12/02 09:36:36;;;;;;;31.30;12.37;;;;;;;;;;5069373;28;20024;-80
2020/12/02 09:39:02;;;;;;;36.10;12.90;;;;;;;;;;5063562;28;20021;-80
2020/12/02 09:41:28;;;;;;;38.57;14.63;;;;;;;;;;5058804;28;20392;-79
2020/12/02 09:44:09;;;;;;;36.17;13.97;;;;;;;;;;5066774;28;20024;-80
2020/12/02 09:46:34;;;;;;;42.40;14.20;;;;;;;;;;5079040;28;20089;-79
2020/12/02 09:49:00;;;;;;;41.87;15.07;;;;;;;;;;5066643;28;20697;-79
2020/12/02 09:51:29;;;;;;;46.77;16.17;;;;;;;;;;5066181;28;20139;-79
2020/12/02 09:53:56;;;;;;;48.17;15.87;;;;;;;;;;5069533;28;20020;-80
2020/12/02 09:56:21;;;;;;;44.83;15.93;;;;;;;;;;5071016;28;20043;-80
2020/12/02 09:58:47;;;;;;;40.33;15.33;;;;;;;;;;5073049;28;20531;-79
2020/12/02 10:01:17;;;;;;;47.97;17.10;;;;;;;;;;5063227;28;20032;-79
2020/12/02 10:04:05;;;;;;;42.70;16.27;;;;;;;;;;5073709;28;20088;-79
2020/12/02 10:06:31;;;;;;;50.27;17.13;;;;;;;;;;5067902;28;20578;-79
2020/12/02 10:09:08;;;;;;;49.90;17.53;;;;;;;;;;5073700;28;20012;-79
2020/12/02 10:11:48;;;;;;;54.00;19.27;;;;;;;;;;5078084;28;20032;-80
2020/12/02 10:14:31;;;;;;;49.57;18.67;;;;;;;;;;5068680;28;20025;-79
2020/12/02 10:17:32;;;;;;;59.07;20.63;;;;;;;;;;5066359;28;20380;-79
2020/12/02 10:20:04;;;;;;;55.93;19.53;;;;;;;;;;5019049;28;20051;-79
2020/12/02 10:22:32;;;;;;;57.30;19.45;;;;;;;;;;5050377;28;20086;-79
2020/12/02 10:25:00;;;;;;;57.00;19.97;;;;;;;;;;5073581;28;20103;-80
2020/12/02 10:27:41;;;;;;;63.83;20.37;;;;;;;;;;5072224;28;20020;-80
2020/12/02 10:30:12;;;;;;;67.53;21.83;;;;;;;;;;5077932;28;20375;-80
2020/12/02 10:33:14;;;;;;;58.45;20.67;;;;;;;;;;5075957;28;20013;-80
2020/12/02 10:35:41;;;;;;;51.92;17.15;;;;;;;;;;5014257;28;20041;-80
2020/12/02 10:38:22;;;;;;;55.77;18.87;;;;;;;;;;5055596;28;20468;-80
2020/12/02 10:40:50;;;;;;;55.07;19.53;;;;;;;;;;5073001;28;20028;-80
2020/12/02 10:43:25;;;;;;;60.00;19.67;;;;;;;;;;5073213;28;20373;-80
2020/12/02 10:45:52;;;;;;;54.30;19.40;;;;;;;;;;5081805;28;20028;-79
2020/12/02 10:48:29;;;;;;;56.90;19.93;;;;;;;;;;5073003;28;20092;-80
2020/12/02 10:50:54;;;;;;;61.37;19.10;;;;;;;;;;5071650;28;20028;-79
2020/12/02 10:53:24;;;;;;;55.33;19.93;;;;;;;;;;5071216;28;20028;-80
2020/12/02 10:55:49;;;;;;;58.50;19.80;;;;;;;;;;5070807;28;20029;-80
2020/12/02 10:58:24;;;;;;;54.40;20.60;;;;;;;;;;5070338;28;20027;-79
2020/12/02 11:00:52;;;;;;;52.23;19.27;;;;;;;;;;5082225;28;20078;-79
2020/12/02 11:03:36;;;;;;;53.83;18.97;;;;;;;;;;5071663;28;20021;-80
2020/12/02 11:06:02;;;;;;;55.20;19.70;;;;;;;;;;5066286;28;20036;-80
2020/12/02 11:08:45;;;;;;;52.60;18.63;;;;;;;;;;5071316;28;20021;-79
2020/12/02 11:11:29;;;;;;;56.17;19.73;;;;;;;;;;5070865;28;20025;-80
2020/12/02 11:14:07;;;;;;;43.53;16.80;;;;;;;;;;5067059;28;20111;-80
2020/12/02 11:16:38;;;;;;;46.23;16.67;;;;;;;;;;5052368;28;20025;-80
2020/12/02 11:19:18;;;;;;;47.10;16.03;;;;;;;;;;5055232;28;20520;-80
2020/12/02 11:21:43;;;;;;;38.23;15.23;;;;;;;;;;5071466;28;20055;-80
2020/12/02 11:24:22;;;;;;;39.46;14.56;;;;;;;;;;5076609;28;20019;-79
2020/12/02 11:26:47;;;;;;;46.13;16.53;;;;;;;;;;5071203;28;20027;-79
2020/12/02 11:29:14;;;;;;;38.37;15.43;;;;;;;;;;5071577;28;20025;-79
2020/12/02 11:31:57;;;;;;;38.77;15.57;;;;;;;;;;5071087;28;20480;-79
2020/12/02 11:34:25;;;;;;;39.93;15.43;;;;;;;;;;5077314;28;20024;-82
2020/12/02 11:36:55;;;;;;;43.07;15.77;;;;;;;;;;5075714;28;20171;-81
2020/12/02 11:39:39;;;;;;;38.37;15.47;;;;;;;;;;5075095;28;20017;-81
2020/12/02 11:42:09;;;;;;;40.63;15.50;;;;;;;;;;5075401;28;20031;-80
2020/12/02 11:44:52;;;;;;;44.70;16.90;;;;;;;;;;5076148;28;20017;-80
2020/12/02 11:47:17;;;;;;;45.43;17.07;;;;;;;;;;5084062;28;20542;-81
2020/12/02 11:49:49;;;;;;;40.87;16.40;;;;;;;;;;5076689;28;20028;-80
2020/12/02 11:52:33;;;;;;;41.78;14.52;;;;;;;;;;5078724;28;20149;-80
2020/12/02 11:54:59;;;;;;;38.93;15.77;;;;;;;;;;5076058;28;20044;-80
2020/12/02 11:57:24;;;;;;;37.70;15.27;;;;;;;;;;5076285;28;20066;-80
2020/12/02 11:59:50;;;;;;;47.33;18.60;;;;;;;;;;5073074;28;20462;-81
2020/12/02 12:02:29;;;;;;;43.73;16.40;;;;;;;;;;5076039;28;20475;-81
2020/12/02 12:05:08;;;;;;;40.03;16.00;;;;;;;;;;5075808;28;20110;-81
2020/12/02 12:07:52;;;;;;;37.13;14.30;;;;;;;;;;5060378;28;20021;-80
2020/12/02 12:10:21;;;;;;;34.33;15.50;;;;;;;;;;5073660;28;20032;-80
2020/12/02 12:12:52;;;;;;;31.03;13.50;;;;;;;;;;5074592;28;20028;-80
2020/12/02 12:15:27;;;;;;;32.38;13.25;;;;;;;;;;5075435;28;20031;-80
2020/12/02 12:17:53;;;;;;;30.80;12.07;;;;;;;;;;5076641;28;20028;-80
2020/12/02 12:20:22;;;;;;;30.33;13.77;;;;;;;;;;5076295;28;20017;-80
2020/12/02 12:23:06;;;;;;;39.17;15.93;;;;;;;;;;5083030;28;20027;-80
2020/12/02 12:25:32;;;;;;;31.07;13.53;;;;;;;;;;5078199;28;20017;-80
2020/12/02 12:27:59;;;;;;;32.00;13.53;;;;;;;;;;5074061;28;20099;-80
2020/12/02 12:30:25;;;;;;;32.73;14.07;;;;;;;;;;5075008;28;20073;-80
2020/12/02 12:32:53;;;;;;;33.33;13.93;;;;;;;;;;5074007;28;20028;-80
2020/12/02 12:35:24;;;;;;;32.47;12.23;;;;;;;;;;5068234;28;20020;-80
2020/12/02 12:37:55;;;;;;;30.87;12.60;;;;;;;;;;5073173;28;20029;-81
2020/12/02 12:40:34;;;;;;;30.00;11.60;;;;;;;;;;5073786;28;20468;-80
2020/12/02 12:43:01;;;;;;;29.17;12.03;;;;;;;;;;5077897;28;20074;-80
2020/12/02 12:45:47;;;;;;;28.93;12.47;;;;;;;;;;5064655;28;20114;-81
2020/12/02 12:48:14;;;;;;;31.43;12.87;;;;;;;;;;5072634;28;20032;-81
2020/12/02 12:50:41;;;;;;;24.63;11.63;;;;;;;;;;5069642;28;20476;-81
2020/12/02 12:53:07;;;;;;;28.37;12.20;;;;;;;;;;5061362;28;20053;-81
2020/12/02 12:55:32;;;;;;;26.77;11.03;;;;;;;;;;5070579;28;20033;-80
2020/12/02 12:58:00;;;;;;;24.53;10.90;;;;;;;;;;5074814;28;20021;-80
2020/12/02 13:00:25;;;;;;;25.83;11.33;;;;;;;;;;5075099;28;20033;-80
2020/12/02 13:03:05;;;;;;;25.87;11.87;;;;;;;;;;5060315;28;20095;-80
2020/12/02 13:05:30;;;;;;;27.40;11.17;;;;;;;;;;5071220;28;20162;-80
2020/12/02 13:07:57;;;;;;;29.63;11.90;;;;;;;;;;5065251;28;20056;-80
2020/12/02 13:10:28;;;;;;;28.60;12.33;;;;;;;;;;5073071;28;20118;-80
2020/12/02 13:13:05;;;;;;;23.90;10.67;;;;;;;;;;5076618;28;20054;-80
2020/12/02 13:15:30;;;;;;;30.67;12.67;;;;;;;;;;5077291;28;20380;-81
2020/12/02 13:17:58;;;;;;;25.40;11.50;;;;;;;;;;5072600;28;20028;-80
2020/12/02 13:20:30;;;;;;;25.73;12.47;;;;;;;;;;5063370;28;20067;-80
2020/12/02 13:23:00;;;;;;;32.67;13.10;;;;;;;;;;5054577;28;20071;-80
2020/12/02 13:25:29;;;;;;;31.27;12.77;;;;;;;;;;5058868;28;20016;-80
2020/12/02 13:27:59;;;;;;;29.83;12.57;;;;;;;;;;5057762;28;20021;-80
2020/12/02 13:30:25;;;;;;;25.60;12.40;;;;;;;;;;5069776;28;20021;-80
2020/12/02 13:32:54;;;;;;;31.97;13.37;;;;;;;;;;5066795;28;20025;-81
2020/12/02 13:35:19;;;;;;;38.23;15.33;;;;;;;;;;5060546;28;20032;-80
2020/12/02 13:37:44;;;;;;;36.67;15.63;;;;;;;;;;5062085;28;20090;-81
2020/12/02 13:40:10;;;;;;;37.77;14.90;;;;;;;;;;5066221;28;20012;-81
2020/12/02 13:42:36;;;;;;;36.63;15.67;;;;;;;;;;5062737;28;20017;-81
2020/12/02 13:45:16;;;;;;;32.13;14.37;;;;;;;;;;5069684;28;20398;-81
2020/12/02 13:47:44;;;;;;;34.60;14.90;;;;;;;;;;5068068;28;20477;-81
2020/12/02 13:50:12;;;;;;;35.47;15.47;;;;;;;;;;5062285;28;20021;-82
2020/12/02 13:52:40;;;;;;;42.73;16.77;;;;;;;;;;5056984;28;20028;-81
2020/12/02 13:55:09;;;;;;;39.33;14.53;;;;;;;;;;5064626;28;20025;-81
2020/12/02 13:57:52;;;;;;;37.27;16.43;;;;;;;;;;5054439;28;20041;-81
2020/12/02 14:00:25;;;;;;;39.87;16.70;;;;;;;;;;5053754;28;20075;-81
2020/12/02 14:03:07;;;;;;;36.30;16.43;;;;;;;;;;5059967;28;20058;-81
2020/12/02 14:05:39;;;;;;;38.85;16.00;;;;;;;;;;5063042;28;20071;-81
2020/12/02 14:08:04;;;;;;;40.23;16.63;;;;;;;;;;5055493;28;20017;-81
2020/12/02 14:10:29;;;;;;;39.73;17.10;;;;;;;;;;5055229;28;20088;-81
2020/12/02 14:12:55;;;;;;;36.93;15.97;;;;;;;;;;5054245;28;20091;-81
2020/12/02 14:15:22;;;;;;;40.03;16.87;;;;;;;;;;5053387;28;20017;-81
2020/12/02 14:17:48;;;;;;;42.20;17.53;;;;;;;;;;5054667;28;20025;-81
2020/12/02 14:20:13;;;;;;;40.17;16.53;;;;;;;;;;5055269;28;20127;-81
2020/12/02 14:22:40;;;;;;;36.37;16.00;;;;;;;;;;5054122;28;20525;-81
2020/12/02 14:25:08;;;;;;;45.73;18.47;;;;;;;;;;5066274;28;20040;-81
2020/12/02 14:27:35;;;;;;;41.87;17.23;;;;;;;;;;5059319;28;20016;-81
2020/12/02 14:30:00;;;;;;;38.57;17.47;;;;;;;;;;5068662;28;20024;-81